sensor_id;sensor_type;location;lat;lon;timestamp;temperature;humidity
2158;DHT22;41972;48.774;9.282;2023-02-26T00:01:28;-0.20;99.90
2158;DHT22;41972;48.774;9.282;2023-02-26T00:03:56;-0.20;99.90
2158;DHT22;41972;48.774;9.282;2023-02-26T00:06:23;-0.20;99.90
2158;DHT22;41972;48.774;9.282;2023-02-26T00:08:49;-0.30;99.90
2158;DHT22;41972;48.774;9.282;2023-02-26T00:11:15;-0.30;99.90
2158;DHT22;41972;48.774;9.282;2023-02-26T00:13:42;-0.30;99.90
2158;DHT22;41972;48.774;9.282;2023-02-26T00:16:29;-0.30;99.90
2158;DHT22;41972;48.774;9.282;2023-02-26T00:18:57;-0.40;99.90
2158;DHT22;41972;48.774;9.282;2023-02-26T00:21:24;-0.50;99.90
2158;DHT22;41972;48.774;9.282;2023-02-26T00:23:50;-0.50;99.90
2158;DHT22;41972;48.774;9.282;2023-02-26T00:26:16;-0.50;99.90
2158;DHT22;41972;48.774;9.282;2023-02-26T00:28:42;-0.50;99.90
2158;DHT22;41972;48.774;9.282;2023-02-26T00:31:08;-0.50;99.90
2158;DHT22;41972;48.774;9.282;2023-02-26T00:33:34;-0.60;99.90
2158;DHT22;41972;48.774;9.282;2023-02-26T00:39:00;-0.60;99.90
2158;DHT22;41972;48.774;9.282;2023-02-26T00:41:27;-0.60;99.90
2158;DHT22;41972;48.774;9.282;2023-02-26T00:43:53;-0.60;99.90
2158;DHT22;41972;48.774;9.282;2023-02-26T00:46:41;-0.60;99.90
2158;DHT22;41972;48.774;9.282;2023-02-26T00:49:22;-0.70;99.90
2158;DHT22;41972;48.774;9.282;2023-02-26T00:51:54;-0.70;99.90
2158;DHT22;41972;48.774;9.282;2023-02-26T00:54:22;-0.70;99.90
2158;DHT22;41972;48.774;9.282;2023-02-26T00:56:49;-0.60;99.90
2158;DHT22;41972;48.774;9.282;2023-02-26T00:59:16;-0.70;99.90
2158;DHT22;41972;48.774;9.282;2023-02-26T01:01:44;-0.70;99.90
2158;DHT22;41972;48.774;9.282;2023-02-26T01:04:11;-0.70;99.90
2158;DHT22;41972;48.774;9.282;2023-02-26T01:06:46;-0.70;99.90
2158;DHT22;41972;48.774;9.282;2023-02-26T01:09:31;-0.70;99.90
2158;DHT22;41972;48.774;9.282;2023-02-26T01:12:04;-0.70;99.90
2158;DHT22;41972;48.774;9.282;2023-02-26T01:14:32;-0.70;99.90
2158;DHT22;41972;48.774;9.282;2023-02-26T01:19:50;-0.70;99.90
2158;DHT22;41972;48.774;9.282;2023-02-26T01:22:59;-0.90;99.90
2158;DHT22;41972;48.774;9.282;2023-02-26T01:25:47;-0.80;99.90
2158;DHT22;41972;48.774;9.282;2023-02-26T01:28:13;-0.90;99.90
2158;DHT22;41972;48.774;9.282;2023-02-26T01:30:38;-0.90;99.90
2158;DHT22;41972;48.774;9.282;2023-02-26T01:33:46;-1.00;99.90
2158;DHT22;41972;48.774;9.282;2023-02-26T01:36:23;-1.00;99.90
2158;DHT22;41972;48.774;9.282;2023-02-26T01:39:24;-1.10;99.90
2158;DHT22;41972;48.774;9.282;2023-02-26T01:41:56;-1.30;99.90
2158;DHT22;41972;48.774;9.282;2023-02-26T01:49:30;-1.30;99.90
2158;DHT22;41972;48.774;9.282;2023-02-26T01:52:01;-1.30;99.90
2158;DHT22;41972;48.774;9.282;2023-02-26T01:57:00;-1.40;99.90
2158;DHT22;41972;48.774;9.282;2023-02-26T01:59:30;-1.50;99.90
2158;DHT22;41972;48.774;9.282;2023-02-26T02:01:57;-1.60;99.90
2158;DHT22;41972;48.774;9.282;2023-02-26T02:04:24;-1.60;99.90
2158;DHT22;41972;48.774;9.282;2023-02-26T02:06:50;-1.50;99.90
2158;DHT22;41972;48.774;9.282;2023-02-26T02:09:16;-1.60;99.90
2158;DHT22;41972;48.774;9.282;2023-02-26T02:12:41;-1.60;99.90
2158;DHT22;41972;48.774;9.282;2023-02-26T02:15:10;-1.70;99.90
2158;DHT22;41972;48.774;9.282;2023-02-26T02:17:50;-1.80;99.90
2158;DHT22;41972;48.774;9.282;2023-02-26T02:23:11;-1.80;99.90
2158;DHT22;41972;48.774;9.282;2023-02-26T02:31:16;-1.90;99.90
2158;DHT22;41972;48.774;9.282;2023-02-26T02:34:02;-2.00;99.90
2158;DHT22;41972;48.774;9.282;2023-02-26T02:36:37;-2.10;99.90
2158;DHT22;41972;48.774;9.282;2023-02-26T02:39:19;-2.30;99.90
2158;DHT22;41972;48.774;9.282;2023-02-26T02:42:07;-2.50;99.90
2158;DHT22;41972;48.774;9.282;2023-02-26T02:44:44;-2.70;99.90
2158;DHT22;41972;48.774;9.282;2023-02-26T02:47:11;-2.90;99.90
2158;DHT22;41972;48.774;9.282;2023-02-26T02:49:46;-3.00;99.90
2158;DHT22;41972;48.774;9.282;2023-02-26T02:52:24;-3.10;99.90
2158;DHT22;41972;48.774;9.282;2023-02-26T02:55:00;-3.30;99.90
2158;DHT22;41972;48.774;9.282;2023-02-26T02:57:36;-3.50;99.90
2158;DHT22;41972;48.774;9.282;2023-02-26T03:00:07;-3.50;99.90
2158;DHT22;41972;48.774;9.282;2023-02-26T03:02:48;-3.70;99.90
2158;DHT22;41972;48.774;9.282;2023-02-26T03:05:15;-3.60;99.90
2158;DHT22;41972;48.774;9.282;2023-02-26T03:07:49;-3.70;99.90
2158;DHT22;41972;48.774;9.282;2023-02-26T03:10:17;-3.80;99.90
2158;DHT22;41972;48.774;9.282;2023-02-26T03:12:43;-3.80;99.90
2158;DHT22;41972;48.774;9.282;2023-02-26T03:15:10;-3.80;99.90
2158;DHT22;41972;48.774;9.282;2023-02-26T03:17:45;-3.90;99.90
2158;DHT22;41972;48.774;9.282;2023-02-26T03:20:25;-3.80;99.90
2158;DHT22;41972;48.774;9.282;2023-02-26T03:28:13;-4.10;99.90
2158;DHT22;41972;48.774;9.282;2023-02-26T03:36:08;-4.20;99.90
2158;DHT22;41972;48.774;9.282;2023-02-26T03:41:16;-4.20;99.90
2158;DHT22;41972;48.774;9.282;2023-02-26T03:43:50;-4.20;99.90
2158;DHT22;41972;48.774;9.282;2023-02-26T03:46:30;-4.20;99.90
2158;DHT22;41972;48.774;9.282;2023-02-26T03:48:58;-4.20;99.90
2158;DHT22;41972;48.774;9.282;2023-02-26T03:51:27;-4.10;99.90
2158;DHT22;41972;48.774;9.282;2023-02-26T03:54:13;-4.30;99.90
2158;DHT22;41972;48.774;9.282;2023-02-26T03:56:43;-4.30;99.90
2158;DHT22;41972;48.774;9.282;2023-02-26T03:59:09;-4.40;99.90
2158;DHT22;41972;48.774;9.282;2023-02-26T04:01:50;-4.40;99.90
2158;DHT22;41972;48.774;9.282;2023-02-26T04:04:22;-4.50;99.90
2158;DHT22;41972;48.774;9.282;2023-02-26T04:06:50;-4.60;99.90
2158;DHT22;41972;48.774;9.282;2023-02-26T04:09:17;-4.50;99.90
2158;DHT22;41972;48.774;9.282;2023-02-26T04:11:44;-4.50;99.90
2158;DHT22;41972;48.774;9.282;2023-02-26T04:14:10;-4.50;99.90
2158;DHT22;41972;48.774;9.282;2023-02-26T04:16:36;-4.40;99.90
2158;DHT22;41972;48.774;9.282;2023-02-26T04:19:01;-4.60;99.90
2158;DHT22;41972;48.774;9.282;2023-02-26T04:21:27;-4.50;99.90
2158;DHT22;41972;48.774;9.282;2023-02-26T04:23:52;-4.50;99.90
2158;DHT22;41972;48.774;9.282;2023-02-26T04:26:18;-4.50;99.90
2158;DHT22;41972;48.774;9.282;2023-02-26T04:28:43;-4.30;99.90
2158;DHT22;41972;48.774;9.282;2023-02-26T04:31:09;-4.50;99.90
2158;DHT22;41972;48.774;9.282;2023-02-26T04:33:35;-4.30;99.90
2158;DHT22;41972;48.774;9.282;2023-02-26T04:36:01;-4.30;99.90
2158;DHT22;41972;48.774;9.282;2023-02-26T04:38:27;-4.30;99.90
2158;DHT22;41972;48.774;9.282;2023-02-26T04:40:53;-4.30;99.90
2158;DHT22;41972;48.774;9.282;2023-02-26T04:43:18;-4.20;99.90
2158;DHT22;41972;48.774;9.282;2023-02-26T04:45:45;-4.00;99.90
2158;DHT22;41972;48.774;9.282;2023-02-26T04:48:12;-3.90;99.90
2158;DHT22;41972;48.774;9.282;2023-02-26T04:50:37;-4.00;99.90
2158;DHT22;41972;48.774;9.282;2023-02-26T04:53:03;-3.80;99.90
2158;DHT22;41972;48.774;9.282;2023-02-26T04:55:29;-3.80;99.90
2158;DHT22;41972;48.774;9.282;2023-02-26T04:57:54;-3.70;99.90
2158;DHT22;41972;48.774;9.282;2023-02-26T05:00:20;-3.70;99.90
2158;DHT22;41972;48.774;9.282;2023-02-26T05:02:46;-3.60;99.90
2158;DHT22;41972;48.774;9.282;2023-02-26T05:05:12;-3.70;99.90
2158;DHT22;41972;48.774;9.282;2023-02-26T05:07:37;-3.80;99.90
2158;DHT22;41972;48.774;9.282;2023-02-26T05:10:05;-3.90;99.90
2158;DHT22;41972;48.774;9.282;2023-02-26T05:12:31;-3.90;99.90
2158;DHT22;41972;48.774;9.282;2023-02-26T05:14:56;-3.70;99.90
2158;DHT22;41972;48.774;9.282;2023-02-26T05:17:22;-3.80;99.90
2158;DHT22;41972;48.774;9.282;2023-02-26T05:19:47;-4.00;99.90
2158;DHT22;41972;48.774;9.282;2023-02-26T05:22:13;-3.90;99.90
2158;DHT22;41972;48.774;9.282;2023-02-26T05:24:39;-3.90;99.90
2158;DHT22;41972;48.774;9.282;2023-02-26T05:27:04;-3.90;99.90
2158;DHT22;41972;48.774;9.282;2023-02-26T05:29:31;-3.90;99.90
2158;DHT22;41972;48.774;9.282;2023-02-26T05:31:56;-3.80;99.90
2158;DHT22;41972;48.774;9.282;2023-02-26T05:34:22;-3.80;99.90
2158;DHT22;41972;48.774;9.282;2023-02-26T05:36:48;-3.80;99.90
2158;DHT22;41972;48.774;9.282;2023-02-26T05:39:13;-3.80;99.90
2158;DHT22;41972;48.774;9.282;2023-02-26T05:41:39;-3.60;99.90
2158;DHT22;41972;48.774;9.282;2023-02-26T05:44:05;-3.50;99.90
2158;DHT22;41972;48.774;9.282;2023-02-26T05:46:32;-3.50;99.90
2158;DHT22;41972;48.774;9.282;2023-02-26T05:48:57;-3.50;99.90
2158;DHT22;41972;48.774;9.282;2023-02-26T05:51:23;-3.30;99.90
2158;DHT22;41972;48.774;9.282;2023-02-26T05:53:48;-3.30;99.90
2158;DHT22;41972;48.774;9.282;2023-02-26T05:56:14;-3.20;99.90
2158;DHT22;41972;48.774;9.282;2023-02-26T05:58:39;-3.30;99.90
2158;DHT22;41972;48.774;9.282;2023-02-26T06:01:05;-3.30;99.90
2158;DHT22;41972;48.774;9.282;2023-02-26T06:03:31;-3.20;99.90
2158;DHT22;41972;48.774;9.282;2023-02-26T06:05:56;-3.20;99.90
2158;DHT22;41972;48.774;9.282;2023-02-26T06:08:22;-3.20;99.90
2158;DHT22;41972;48.774;9.282;2023-02-26T06:10:49;-3.20;99.90
2158;DHT22;41972;48.774;9.282;2023-02-26T06:13:15;-3.20;99.90
2158;DHT22;41972;48.774;9.282;2023-02-26T06:15:41;-3.20;99.90
2158;DHT22;41972;48.774;9.282;2023-02-26T06:18:06;-3.30;99.90
2158;DHT22;41972;48.774;9.282;2023-02-26T06:20:33;-3.40;99.90
2158;DHT22;41972;48.774;9.282;2023-02-26T06:22:58;-3.50;99.90
2158;DHT22;41972;48.774;9.282;2023-02-26T06:25:25;-3.80;99.90
2158;DHT22;41972;48.774;9.282;2023-02-26T06:27:51;-3.80;99.90
2158;DHT22;41972;48.774;9.282;2023-02-26T06:30:16;-3.90;99.90
2158;DHT22;41972;48.774;9.282;2023-02-26T06:32:42;-3.70;99.90
2158;DHT22;41972;48.774;9.282;2023-02-26T06:35:09;-3.70;99.90
2158;DHT22;41972;48.774;9.282;2023-02-26T06:37:35;-3.60;99.90
2158;DHT22;41972;48.774;9.282;2023-02-26T06:40:01;-3.40;99.90
2158;DHT22;41972;48.774;9.282;2023-02-26T06:42:28;-3.30;99.90
2158;DHT22;41972;48.774;9.282;2023-02-26T06:44:53;-3.40;99.90
2158;DHT22;41972;48.774;9.282;2023-02-26T06:47:19;-3.50;99.90
2158;DHT22;41972;48.774;9.282;2023-02-26T06:49:44;-3.30;99.90
2158;DHT22;41972;48.774;9.282;2023-02-26T06:52:10;-3.20;99.90
2158;DHT22;41972;48.774;9.282;2023-02-26T06:54:35;-3.00;99.90
2158;DHT22;41972;48.774;9.282;2023-02-26T06:57:01;-2.90;99.90
2158;DHT22;41972;48.774;9.282;2023-02-26T06:59:27;-2.70;99.90
2158;DHT22;41972;48.774;9.282;2023-02-26T07:01:53;-2.80;99.90
2158;DHT22;41972;48.774;9.282;2023-02-26T07:04:19;-2.60;99.90
2158;DHT22;41972;48.774;9.282;2023-02-26T07:06:44;-2.30;99.90
2158;DHT22;41972;48.774;9.282;2023-02-26T07:09:10;-2.20;99.90
2158;DHT22;41972;48.774;9.282;2023-02-26T07:11:35;-2.10;99.90
2158;DHT22;41972;48.774;9.282;2023-02-26T07:14:01;-1.80;99.90
2158;DHT22;41972;48.774;9.282;2023-02-26T07:16:26;-1.40;99.90
2158;DHT22;41972;48.774;9.282;2023-02-26T07:18:52;-1.10;99.90
2158;DHT22;41972;48.774;9.282;2023-02-26T07:21:17;-1.40;99.90
2158;DHT22;41972;48.774;9.282;2023-02-26T07:23:43;-1.10;99.90
2158;DHT22;41972;48.774;9.282;2023-02-26T07:26:08;-0.90;99.90
2158;DHT22;41972;48.774;9.282;2023-02-26T07:28:34;0.10;99.90
2158;DHT22;41972;48.774;9.282;2023-02-26T07:31:00;0.50;99.90
2158;DHT22;41972;48.774;9.282;2023-02-26T07:33:25;1.00;99.90
2158;DHT22;41972;48.774;9.282;2023-02-26T07:35:53;1.00;99.90
2158;DHT22;41972;48.774;9.282;2023-02-26T07:38:19;0.80;99.90
2158;DHT22;41972;48.774;9.282;2023-02-26T07:40:44;0.50;99.90
2158;DHT22;41972;48.774;9.282;2023-02-26T07:43:11;0.70;99.90
2158;DHT22;41972;48.774;9.282;2023-02-26T07:45:36;0.30;99.90
2158;DHT22;41972;48.774;9.282;2023-02-26T07:48:02;-0.10;99.90
2158;DHT22;41972;48.774;9.282;2023-02-26T07:50:28;-0.70;99.90
2158;DHT22;41972;48.774;9.282;2023-02-26T07:52:54;-0.70;99.90
2158;DHT22;41972;48.774;9.282;2023-02-26T07:55:20;-0.80;99.90
2158;DHT22;41972;48.774;9.282;2023-02-26T07:57:46;-0.70;99.90
2158;DHT22;41972;48.774;9.282;2023-02-26T08:00:12;-1.10;99.90
2158;DHT22;41972;48.774;9.282;2023-02-26T08:02:38;-0.80;99.90
2158;DHT22;41972;48.774;9.282;2023-02-26T08:05:03;-0.80;99.90
2158;DHT22;41972;48.774;9.282;2023-02-26T08:07:29;-0.70;99.90
2158;DHT22;41972;48.774;9.282;2023-02-26T08:09:55;0.10;99.90
2158;DHT22;41972;48.774;9.282;2023-02-26T08:12:20;1.20;99.90
2158;DHT22;41972;48.774;9.282;2023-02-26T08:14:46;2.00;99.90
2158;DHT22;41972;48.774;9.282;2023-02-26T08:17:12;2.30;99.90
2158;DHT22;41972;48.774;9.282;2023-02-26T08:19:38;2.80;99.90
2158;DHT22;41972;48.774;9.282;2023-02-26T08:22:03;2.20;99.90
2158;DHT22;41972;48.774;9.282;2023-02-26T08:24:29;1.30;99.90
2158;DHT22;41972;48.774;9.282;2023-02-26T08:26:54;1.10;99.90
2158;DHT22;41972;48.774;9.282;2023-02-26T08:29:21;1.30;99.90
2158;DHT22;41972;48.774;9.282;2023-02-26T08:31:47;0.80;99.90
2158;DHT22;41972;48.774;9.282;2023-02-26T08:34:12;0.90;99.90
2158;DHT22;41972;48.774;9.282;2023-02-26T08:36:38;1.20;99.90
2158;DHT22;41972;48.774;9.282;2023-02-26T08:39:04;0.00;99.90
2158;DHT22;41972;48.774;9.282;2023-02-26T08:41:29;-0.50;99.90
2158;DHT22;41972;48.774;9.282;2023-02-26T08:44:00;-0.20;99.90
2158;DHT22;41972;48.774;9.282;2023-02-26T08:46:25;0.10;99.90
2158;DHT22;41972;48.774;9.282;2023-02-26T08:48:51;0.00;99.90
2158;DHT22;41972;48.774;9.282;2023-02-26T08:51:18;0.10;99.90
2158;DHT22;41972;48.774;9.282;2023-02-26T08:53:43;-0.80;99.90
2158;DHT22;41972;48.774;9.282;2023-02-26T08:56:11;-0.90;99.90
2158;DHT22;41972;48.774;9.282;2023-02-26T08:58:37;-0.90;99.90
2158;DHT22;41972;48.774;9.282;2023-02-26T09:01:03;-0.90;99.90
2158;DHT22;41972;48.774;9.282;2023-02-26T09:03:29;-0.70;99.90
2158;DHT22;41972;48.774;9.282;2023-02-26T09:05:55;-0.80;99.90
2158;DHT22;41972;48.774;9.282;2023-02-26T09:08:21;-1.00;99.90
2158;DHT22;41972;48.774;9.282;2023-02-26T09:10:47;-1.20;99.90
2158;DHT22;41972;48.774;9.282;2023-02-26T09:13:13;-1.20;99.90
2158;DHT22;41972;48.774;9.282;2023-02-26T09:15:38;-1.00;99.90
2158;DHT22;41972;48.774;9.282;2023-02-26T09:18:05;-1.10;99.90
2158;DHT22;41972;48.774;9.282;2023-02-26T09:20:31;-0.70;99.90
2158;DHT22;41972;48.774;9.282;2023-02-26T09:22:56;-0.80;99.90
2158;DHT22;41972;48.774;9.282;2023-02-26T09:25:22;-0.40;99.90
2158;DHT22;41972;48.774;9.282;2023-02-26T09:27:48;0.10;99.90
2158;DHT22;41972;48.774;9.282;2023-02-26T09:30:14;-0.10;99.90
2158;DHT22;41972;48.774;9.282;2023-02-26T09:32:39;-0.30;99.90
2158;DHT22;41972;48.774;9.282;2023-02-26T09:35:05;-0.30;99.90
2158;DHT22;41972;48.774;9.282;2023-02-26T09:37:31;-0.30;99.90
2158;DHT22;41972;48.774;9.282;2023-02-26T09:39:57;0.00;99.90
2158;DHT22;41972;48.774;9.282;2023-02-26T09:44:51;-0.70;99.90
2158;DHT22;41972;48.774;9.282;2023-02-26T09:50:41;-0.30;99.90
2158;DHT22;41972;48.774;9.282;2023-02-26T09:53:21;-0.40;99.90
2158;DHT22;41972;48.774;9.282;2023-02-26T09:55:51;-0.40;99.90
2158;DHT22;41972;48.774;9.282;2023-02-26T10:06:28;-0.40;99.90
2158;DHT22;41972;48.774;9.282;2023-02-26T10:09:19;-0.30;99.90
2158;DHT22;41972;48.774;9.282;2023-02-26T10:12:01;-0.20;99.90
2158;DHT22;41972;48.774;9.282;2023-02-26T10:17:34;-0.50;99.90
2158;DHT22;41972;48.774;9.282;2023-02-26T10:20:23;-0.60;99.90
2158;DHT22;41972;48.774;9.282;2023-02-26T10:25:20;-0.50;99.90
2158;DHT22;41972;48.774;9.282;2023-02-26T10:28:00;-0.20;99.90
2158;DHT22;41972;48.774;9.282;2023-02-26T10:30:57;-0.40;99.90
2158;DHT22;41972;48.774;9.282;2023-02-26T10:36:03;-0.60;99.90
2158;DHT22;41972;48.774;9.282;2023-02-26T10:38:33;-0.50;99.90
2158;DHT22;41972;48.774;9.282;2023-02-26T10:41:03;-0.30;99.90
2158;DHT22;41972;48.774;9.282;2023-02-26T10:43:39;-0.20;99.90
2158;DHT22;41972;48.774;9.282;2023-02-26T10:46:40;-0.30;99.90
2158;DHT22;41972;48.774;9.282;2023-02-26T10:49:35;-0.10;99.90
2158;DHT22;41972;48.774;9.282;2023-02-26T10:52:24;0.10;99.90
2158;DHT22;41972;48.774;9.282;2023-02-26T10:57:39;0.20;99.90
2158;DHT22;41972;48.774;9.282;2023-02-26T11:00:15;0.10;99.90
2158;DHT22;41972;48.774;9.282;2023-02-26T11:02:45;0.30;99.90
2158;DHT22;41972;48.774;9.282;2023-02-26T11:05:20;0.50;99.90
2158;DHT22;41972;48.774;9.282;2023-02-26T11:07:50;0.60;99.90
2158;DHT22;41972;48.774;9.282;2023-02-26T11:10:19;0.40;99.90
2158;DHT22;41972;48.774;9.282;2023-02-26T11:12:45;0.30;99.90
2158;DHT22;41972;48.774;9.282;2023-02-26T11:15:13;0.90;99.90
2158;DHT22;41972;48.774;9.282;2023-02-26T11:17:39;1.20;99.90
2158;DHT22;41972;48.774;9.282;2023-02-26T11:22:47;1.10;99.90
2158;DHT22;41972;48.774;9.282;2023-02-26T11:25:17;0.70;99.90
2158;DHT22;41972;48.774;9.282;2023-02-26T11:27:43;0.50;99.90
2158;DHT22;41972;48.774;9.282;2023-02-26T11:30:21;0.30;99.90
2158;DHT22;41972;48.774;9.282;2023-02-26T11:32:51;0.50;99.90
2158;DHT22;41972;48.774;9.282;2023-02-26T11:35:19;0.40;99.90
2158;DHT22;41972;48.774;9.282;2023-02-26T11:37:49;1.00;99.90
2158;DHT22;41972;48.774;9.282;2023-02-26T11:40:22;1.30;99.90
2158;DHT22;41972;48.774;9.282;2023-02-26T11:42:59;1.10;99.90
2158;DHT22;41972;48.774;9.282;2023-02-26T11:45:28;1.00;99.90
2158;DHT22;41972;48.774;9.282;2023-02-26T11:48:03;1.00;99.90
2158;DHT22;41972;48.774;9.282;2023-02-26T11:50:29;0.90;99.90
2158;DHT22;41972;48.774;9.282;2023-02-26T11:53:06;0.80;99.90
2158;DHT22;41972;48.774;9.282;2023-02-26T11:55:36;0.60;99.90
2158;DHT22;41972;48.774;9.282;2023-02-26T11:58:13;1.00;99.90
2158;DHT22;41972;48.774;9.282;2023-02-26T12:00:40;1.40;99.90
2158;DHT22;41972;48.774;9.282;2023-02-26T12:03:13;0.90;99.90
2158;DHT22;41972;48.774;9.282;2023-02-26T12:05:40;0.90;99.90
2158;DHT22;41972;48.774;9.282;2023-02-26T12:08:17;0.90;99.90
2158;DHT22;41972;48.774;9.282;2023-02-26T12:16:38;0.90;99.90
2158;DHT22;41972;48.774;9.282;2023-02-26T12:19:39;0.80;99.90
2158;DHT22;41972;48.774;9.282;2023-02-26T12:28:09;1.00;99.90
2158;DHT22;41972;48.774;9.282;2023-02-26T13:01:44;1.50;99.90
2158;DHT22;41972;48.774;9.282;2023-02-26T13:04:35;1.20;99.90
2158;DHT22;41972;48.774;9.282;2023-02-26T13:10:02;1.30;99.90
2158;DHT22;41972;48.774;9.282;2023-02-26T13:15:39;1.30;99.90
2158;DHT22;41972;48.774;9.282;2023-02-26T13:18:38;1.10;99.90
2158;DHT22;41972;48.774;9.282;2023-02-26T13:21:12;1.00;99.90
2158;DHT22;41972;48.774;9.282;2023-02-26T13:23:50;0.80;99.90
2158;DHT22;41972;48.774;9.282;2023-02-26T13:26:16;0.90;99.90
2158;DHT22;41972;48.774;9.282;2023-02-26T13:34:05;1.20;99.90
2158;DHT22;41972;48.774;9.282;2023-02-26T13:36:31;1.30;99.90
2158;DHT22;41972;48.774;9.282;2023-02-26T13:44:37;1.30;99.90
2158;DHT22;41972;48.774;9.282;2023-02-26T13:53:35;1.40;99.90
2158;DHT22;41972;48.774;9.282;2023-02-26T13:55:45;1.50;99.90
2158;DHT22;41972;48.774;9.282;2023-02-26T13:58:28;1.50;99.90
2158;DHT22;41972;48.774;9.282;2023-02-26T14:01:14;1.70;99.90
2158;DHT22;41972;48.774;9.282;2023-02-26T14:06:36;1.30;99.90
2158;DHT22;41972;48.774;9.282;2023-02-26T14:09:15;1.60;99.90
2158;DHT22;41972;48.774;9.282;2023-02-26T14:11:59;1.60;99.90
2158;DHT22;41972;48.774;9.282;2023-02-26T14:19:34;2.00;99.90
2158;DHT22;41972;48.774;9.282;2023-02-26T14:24:57;1.80;99.90
2158;DHT22;41972;48.774;9.282;2023-02-26T14:30:45;2.00;99.90
2158;DHT22;41972;48.774;9.282;2023-02-26T14:33:06;2.00;99.90
2158;DHT22;41972;48.774;9.282;2023-02-26T14:35:33;1.80;99.90
2158;DHT22;41972;48.774;9.282;2023-02-26T14:38:07;1.90;99.90
2158;DHT22;41972;48.774;9.282;2023-02-26T14:40:44;1.90;99.90
2158;DHT22;41972;48.774;9.282;2023-02-26T14:43:38;1.90;99.90
2158;DHT22;41972;48.774;9.282;2023-02-26T14:46:06;1.70;99.90
2158;DHT22;41972;48.774;9.282;2023-02-26T14:48:33;1.80;99.90
2158;DHT22;41972;48.774;9.282;2023-02-26T14:51:05;1.90;99.90
2158;DHT22;41972;48.774;9.282;2023-02-26T14:56:14;1.70;99.90
2158;DHT22;41972;48.774;9.282;2023-02-26T15:07:22;2.00;99.90
2158;DHT22;41972;48.774;9.282;2023-02-26T15:10:20;1.90;99.90
2158;DHT22;41972;48.774;9.282;2023-02-26T15:18:38;1.60;99.90
2158;DHT22;41972;48.774;9.282;2023-02-26T15:23:53;1.50;99.90
2158;DHT22;41972;48.774;9.282;2023-02-26T15:26:20;1.50;99.90
2158;DHT22;41972;48.774;9.282;2023-02-26T15:28:48;1.40;99.90
2158;DHT22;41972;48.774;9.282;2023-02-26T15:31:15;1.40;99.90
2158;DHT22;41972;48.774;9.282;2023-02-26T15:33:42;1.40;99.90
2158;DHT22;41972;48.774;9.282;2023-02-26T15:36:17;1.40;99.90
2158;DHT22;41972;48.774;9.282;2023-02-26T15:38:47;1.50;99.90
2158;DHT22;41972;48.774;9.282;2023-02-26T15:41:13;1.40;99.90
2158;DHT22;41972;48.774;9.282;2023-02-26T15:43:47;1.30;99.90
2158;DHT22;41972;48.774;9.282;2023-02-26T15:46:14;1.40;99.90
2158;DHT22;41972;48.774;9.282;2023-02-26T15:48:40;1.40;99.90
2158;DHT22;41972;48.774;9.282;2023-02-26T15:51:12;1.30;99.90
2158;DHT22;41972;48.774;9.282;2023-02-26T15:53:47;1.20;99.90
2158;DHT22;41972;48.774;9.282;2023-02-26T15:56:21;1.30;99.90
2158;DHT22;41972;48.774;9.282;2023-02-26T15:58:52;1.20;99.90
2158;DHT22;41972;48.774;9.282;2023-02-26T16:01:21;1.30;99.90
2158;DHT22;41972;48.774;9.282;2023-02-26T16:03:50;1.30;99.90
2158;DHT22;41972;48.774;9.282;2023-02-26T16:06:43;1.40;99.90
2158;DHT22;41972;48.774;9.282;2023-02-26T16:09:27;1.40;99.90
2158;DHT22;41972;48.774;9.282;2023-02-26T16:11:56;1.30;99.90
2158;DHT22;41972;48.774;9.282;2023-02-26T16:14:28;1.20;99.90
2158;DHT22;41972;48.774;9.282;2023-02-26T16:16:55;1.20;99.90
2158;DHT22;41972;48.774;9.282;2023-02-26T16:19:41;1.20;99.90
2158;DHT22;41972;48.774;9.282;2023-02-26T16:22:23;1.10;99.90
2158;DHT22;41972;48.774;9.282;2023-02-26T16:24:54;1.00;99.90
2158;DHT22;41972;48.774;9.282;2023-02-26T16:27:25;1.00;99.90
2158;DHT22;41972;48.774;9.282;2023-02-26T16:29:54;1.00;99.90
2158;DHT22;41972;48.774;9.282;2023-02-26T16:32:20;0.90;99.90
2158;DHT22;41972;48.774;9.282;2023-02-26T16:34:54;1.00;99.90
2158;DHT22;41972;48.774;9.282;2023-02-26T16:42:51;1.10;99.90
2158;DHT22;41972;48.774;9.282;2023-02-26T16:48:22;1.00;99.90
2158;DHT22;41972;48.774;9.282;2023-02-26T16:51:01;1.00;99.90
2158;DHT22;41972;48.774;9.282;2023-02-26T16:56:13;0.90;99.90
2158;DHT22;41972;48.774;9.282;2023-02-26T16:58:43;0.80;99.90
2158;DHT22;41972;48.774;9.282;2023-02-26T17:01:14;0.80;99.90
2158;DHT22;41972;48.774;9.282;2023-02-26T17:03:40;0.80;99.90
2158;DHT22;41972;48.774;9.282;2023-02-26T17:06:12;0.80;99.90
2158;DHT22;41972;48.774;9.282;2023-02-26T17:08:51;0.80;99.90
2158;DHT22;41972;48.774;9.282;2023-02-26T17:11:25;0.70;99.90
2158;DHT22;41972;48.774;9.282;2023-02-26T17:16:35;0.70;99.90
2158;DHT22;41972;48.774;9.282;2023-02-26T17:19:01;0.60;99.90
2158;DHT22;41972;48.774;9.282;2023-02-26T17:21:27;0.60;99.90
2158;DHT22;41972;48.774;9.282;2023-02-26T17:23:53;0.60;99.90
2158;DHT22;41972;48.774;9.282;2023-02-26T17:26:19;0.60;99.90
2158;DHT22;41972;48.774;9.282;2023-02-26T17:28:45;0.60;99.90
2158;DHT22;41972;48.774;9.282;2023-02-26T17:31:10;0.60;99.90
2158;DHT22;41972;48.774;9.282;2023-02-26T17:33:39;0.40;99.90
2158;DHT22;41972;48.774;9.282;2023-02-26T17:36:05;0.40;99.90
2158;DHT22;41972;48.774;9.282;2023-02-26T17:38:32;0.50;99.90
2158;DHT22;41972;48.774;9.282;2023-02-26T17:40:58;0.50;99.90
2158;DHT22;41972;48.774;9.282;2023-02-26T17:43:23;0.40;99.90
2158;DHT22;41972;48.774;9.282;2023-02-26T17:45:50;0.50;99.90
2158;DHT22;41972;48.774;9.282;2023-02-26T17:48:16;0.50;99.90
2158;DHT22;41972;48.774;9.282;2023-02-26T17:53:18;0.30;99.90
2158;DHT22;41972;48.774;9.282;2023-02-26T17:55:45;0.30;99.90
2158;DHT22;41972;48.774;9.282;2023-02-26T17:58:17;0.20;99.90
2158;DHT22;41972;48.774;9.282;2023-02-26T18:00:43;0.20;99.90
2158;DHT22;41972;48.774;9.282;2023-02-26T18:03:15;0.10;99.90
2158;DHT22;41972;48.774;9.282;2023-02-26T18:05:40;0.10;99.90
2158;DHT22;41972;48.774;9.282;2023-02-26T18:08:23;0.00;99.90
2158;DHT22;41972;48.774;9.282;2023-02-26T18:10:50;0.00;99.90
2158;DHT22;41972;48.774;9.282;2023-02-26T18:13:15;0.00;99.90
2158;DHT22;41972;48.774;9.282;2023-02-26T18:15:41;0.00;99.90
2158;DHT22;41972;48.774;9.282;2023-02-26T18:18:09;-0.10;99.90
2158;DHT22;41972;48.774;9.282;2023-02-26T18:20:35;-0.10;99.90
2158;DHT22;41972;48.774;9.282;2023-02-26T18:23:00;-0.10;99.90
2158;DHT22;41972;48.774;9.282;2023-02-26T18:25:26;-0.10;99.90
2158;DHT22;41972;48.774;9.282;2023-02-26T18:27:54;-0.20;99.90
2158;DHT22;41972;48.774;9.282;2023-02-26T18:30:27;-0.20;99.90
2158;DHT22;41972;48.774;9.282;2023-02-26T18:32:53;-0.20;99.90
2158;DHT22;41972;48.774;9.282;2023-02-26T18:35:19;-0.20;99.90
2158;DHT22;41972;48.774;9.282;2023-02-26T18:37:45;-0.10;99.90
2158;DHT22;41972;48.774;9.282;2023-02-26T18:40:15;-0.10;99.90
2158;DHT22;41972;48.774;9.282;2023-02-26T18:42:40;-0.10;99.90
2158;DHT22;41972;48.774;9.282;2023-02-26T18:45:06;-0.10;99.90
2158;DHT22;41972;48.774;9.282;2023-02-26T18:47:32;-0.20;99.90
2158;DHT22;41972;48.774;9.282;2023-02-26T18:49:58;-0.10;99.90
2158;DHT22;41972;48.774;9.282;2023-02-26T18:52:23;-0.20;99.90
2158;DHT22;41972;48.774;9.282;2023-02-26T18:54:49;-0.20;99.90
2158;DHT22;41972;48.774;9.282;2023-02-26T18:57:15;-0.30;99.90
2158;DHT22;41972;48.774;9.282;2023-02-26T18:59:41;-0.30;99.90
2158;DHT22;41972;48.774;9.282;2023-02-26T19:02:09;-0.40;99.90
2158;DHT22;41972;48.774;9.282;2023-02-26T19:04:36;-0.40;99.90
2158;DHT22;41972;48.774;9.282;2023-02-26T19:07:02;-0.40;99.90
2158;DHT22;41972;48.774;9.282;2023-02-26T19:09:28;-0.50;99.90